Time;durP1;ratioP1;P1;durP2;ratioP2;P2;SDS_P1;SDS_P2;PMS_P1;PMS_P2;Temp;Humidity;BMP_temperature;BMP_pressure;BME280_temperature;BME280_humidity;BME280_pressure;Samples;Min_cycle;Max_cycle;Signal;HPM_P1;HPM_P2
2022/04/15 00:00:26;;;;;;;14.80;6.07;;;;;;;11.68;100.00;100855.72;4947290;29;20187;-54
2022/04/15 00:02:52;;;;;;;12.43;5.60;;;;;;;11.62;100.00;100858.34;4949216;28;20290;-54
2022/04/15 00:05:36;;;;;;;13.17;5.67;;;;;;;11.57;100.00;100855.75;4948301;28;20638;-56
2022/04/15 00:08:09;;;;;;;8.73;5.70;;;;;;;11.55;100.00;100856.63;4947611;28;20190;-54
2022/04/15 00:10:35;;;;;;;6.37;4.83;;;;;;;11.52;100.00;100857.53;4959957;28;20191;-54
2022/04/15 00:13:02;;;;;;;7.63;5.20;;;;;;;11.50;100.00;100858.38;4947209;29;20589;-54
2022/04/15 00:15:28;;;;;;;6.93;5.03;;;;;;;11.47;100.00;100864.44;4948161;29;20183;-53
2022/04/15 00:17:54;;;;;;;9.33;4.70;;;;;;;11.41;100.00;100862.75;4950515;29;20277;-53
2022/04/15 00:20:20;;;;;;;5.93;5.20;;;;;;;11.38;100.00;100859.31;4946867;29;20209;-55
2022/04/15 00:22:46;;;;;;;6.97;5.07;;;;;;;11.34;100.00;100863.66;4945273;29;20280;-54
2022/04/15 00:25:13;;;;;;;6.73;5.90;;;;;;;11.32;100.00;100860.19;4949527;29;20215;-53
2022/04/15 00:27:39;;;;;;;6.27;5.67;;;;;;;11.28;100.00;100858.47;4942868;29;20217;-55
2022/04/15 00:30:07;;;;;;;6.37;5.60;;;;;;;11.25;100.00;100858.47;4945956;29;20858;-53
2022/04/15 00:32:32;;;;;;;7.17;5.53;;;;;;;11.22;100.00;100858.47;4945112;29;20246;-53
2022/04/15 00:34:58;;;;;;;8.07;5.57;;;;;;;11.19;100.00;100859.34;4946934;28;20226;-55
2022/04/15 00:37:23;;;;;;;5.93;5.43;;;;;;;11.16;100.00;100858.50;4946782;29;20666;-53
2022/04/15 00:39:49;;;;;;;6.37;5.67;;;;;;;11.13;100.00;100856.75;4945012;29;20197;-53
2022/04/15 00:42:15;;;;;;;6.20;5.70;;;;;;;11.09;100.00;100857.66;4944776;28;20306;-53
2022/04/15 00:44:40;;;;;;;6.27;5.77;;;;;;;11.05;100.00;100864.53;4948437;28;20285;-53
2022/04/15 00:47:17;;;;;;;6.63;6.03;;;;;;;10.98;100.00;100852.47;4946328;28;20183;-52
2022/04/15 00:49:42;;;;;;;6.10;5.50;;;;;;;10.91;100.00;100859.41;4944411;28;20190;-53
2022/04/15 00:52:11;;;;;;;6.67;5.67;;;;;;;10.86;100.00;100853.34;4947024;28;20220;-54
2022/04/15 00:54:38;;;;;;;6.40;5.77;;;;;;;10.80;100.00;100854.22;4947500;28;20211;-53
2022/04/15 00:57:05;;;;;;;7.03;5.83;;;;;;;10.76;100.00;100854.22;4946740;28;20289;-53
2022/04/15 00:59:31;;;;;;;6.60;6.00;;;;;;;10.71;100.00;100845.59;4944806;29;20194;-54
2022/04/15 01:01:59;;;;;;;6.73;4.90;;;;;;;10.68;100.00;100849.06;4941739;29;20618;-56
2022/04/15 01:04:26;;;;;;;5.87;5.37;;;;;;;10.64;100.00;100853.38;4944209;28;20206;-54
2022/04/15 01:06:53;;;;;;;6.13;5.63;;;;;;;10.62;100.00;100855.09;4945807;28;20194;-53
2022/04/15 01:09:20;;;;;;;5.67;5.17;;;;;;;10.60;100.00;100855.94;4947174;28;20222;-54
2022/04/15 01:11:49;;;;;;;5.97;5.47;;;;;;;10.60;100.00;100858.53;4944692;29;20590;-53
2022/04/15 01:14:16;;;;;;;6.00;5.40;;;;;;;10.60;100.00;100856.81;4947600;29;20191;-54
2022/04/15 01:16:41;;;;;;;6.60;5.80;;;;;;;10.57;100.00;100867.16;4949193;29;20194;-54
2022/04/15 01:19:09;;;;;;;6.50;5.90;;;;;;;10.56;100.00;100862.00;4947226;29;20189;-53
2022/04/15 01:21:37;;;;;;;6.67;5.97;;;;;;;10.51;100.00;100864.59;4944763;29;20190;-54
2022/04/15 01:24:03;;;;;;;6.93;6.03;;;;;;;10.48;100.00;100867.19;4947813;29;20206;-56
2022/04/15 01:26:28;;;;;;;6.87;6.10;;;;;;;10.45;100.00;100874.94;4944545;29;20560;-53
2022/04/15 01:28:54;;;;;;;7.23;5.90;;;;;;;10.42;100.00;100877.50;4948370;29;20555;-54
2022/04/15 01:31:19;;;;;;;6.43;5.80;;;;;;;10.36;100.00;100871.41;4945128;29;20198;-53
2022/04/15 01:33:44;;;;;;;6.40;5.90;;;;;;;10.35;100.00;100872.31;4946604;29;20210;-53
2022/04/15 01:36:10;;;;;;;6.63;5.97;;;;;;;10.33;100.00;100880.91;4944672;29;20285;-54
2022/04/15 01:38:36;;;;;;;7.17;5.40;;;;;;;10.29;100.00;100880.06;4945812;29;20262;-53
2022/04/15 01:41:01;;;;;;;7.53;5.67;;;;;;;10.24;100.00;100881.75;4944408;28;20199;-54
2022/04/15 01:43:27;;;;;;;5.63;5.13;;;;;;;10.20;100.00;100885.22;4944654;29;20821;-54
2022/04/15 01:45:52;;;;;;;9.33;5.87;;;;;;;10.15;100.00;100886.91;4948205;29;20227;-55
2022/04/15 01:48:17;;;;;;;6.37;5.77;;;;;;;10.10;100.00;100886.91;4946385;28;20202;-53
2022/04/15 01:50:43;;;;;;;6.90;5.87;;;;;;;10.04;100.00;100887.78;4946989;28;20322;-55
2022/04/15 01:53:08;;;;;;;6.40;5.70;;;;;;;10.01;100.00;100894.63;4942762;28;20214;-54
2022/04/15 01:55:34;;;;;;;7.83;5.87;;;;;;;9.97;100.00;100892.91;4946204;29;20697;-55
2022/04/15 01:57:59;;;;;;;7.97;5.60;;;;;;;9.95;100.00;100889.47;4945207;29;20253;-54
2022/04/15 02:00:25;;;;;;;8.23;5.90;;;;;;;9.94;100.00;100886.00;4947062;29;20195;-53
2022/04/15 02:02:50;;;;;;;9.93;5.93;;;;;;;9.96;100.00;100888.59;4946049;29;20333;-53
2022/04/15 02:05:16;;;;;;;6.07;5.47;;;;;;;9.96;100.00;100896.34;4947994;29;20210;-54
2022/04/15 02:07:41;;;;;;;7.77;5.57;;;;;;;9.95;100.00;100890.31;4943881;29;20205;-53
2022/04/15 02:10:07;;;;;;;8.07;5.93;;;;;;;9.96;100.00;100889.44;4944257;28;20831;-54
2022/04/15 02:12:33;;;;;;;7.43;6.43;;;;;;;9.97;100.00;100898.09;4947843;28;20227;-54
2022/04/15 02:14:58;;;;;;;6.73;6.13;;;;;;;9.96;100.00;100897.22;4950864;29;20194;-53
2022/04/15 02:17:23;;;;;;;6.33;5.77;;;;;;;9.95;100.00;100899.78;4945089;29;20244;-54
2022/04/15 02:19:50;;;;;;;7.03;6.30;;;;;;;9.93;100.00;100898.91;4950576;28;20244;-53
2022/04/15 02:22:16;;;;;;;6.93;6.33;;;;;;;9.87;100.00;100886.84;4949423;29;20709;-53
2022/04/15 02:24:41;;;;;;;6.00;5.37;;;;;;;9.82;100.00;100889.41;4948988;29;20222;-52
2022/04/15 02:27:07;;;;;;;6.40;5.90;;;;;;;9.79;100.00;100891.97;4942693;28;20281;-54
2022/04/15 02:29:32;;;;;;;7.50;5.90;;;;;;;9.73;100.00;100890.25;4946836;29;20191;-53
2022/04/15 02:31:58;;;;;;;6.40;5.77;;;;;;;9.69;100.00;100900.53;4945520;29;20252;-55
2022/04/15 02:34:23;;;;;;;6.53;5.93;;;;;;;9.62;100.00;100891.91;4954765;28;20194;-55
2022/04/15 02:36:48;;;;;;;6.23;5.63;;;;;;;9.58;100.00;100897.94;4949012;29;20191;-54
2022/04/15 02:39:14;;;;;;;6.40;5.80;;;;;;;9.56;100.00;100899.63;4951041;28;20191;-54
2022/04/15 02:41:40;;;;;;;6.10;5.50;;;;;;;9.51;100.00;100891.88;4948835;28;20197;-52
2022/04/15 02:44:07;;;;;;;6.10;5.50;;;;;;;9.46;100.00;100899.56;4945654;29;20218;-54
2022/04/15 02:46:34;;;;;;;5.90;5.40;;;;;;;9.42;100.00;100895.25;4945099;28;20574;-54
2022/04/15 02:48:59;;;;;;;6.50;5.90;;;;;;;9.42;100.00;100897.84;4949211;28;20196;-53
2022/04/15 02:51:25;;;;;;;6.17;5.60;;;;;;;9.38;100.00;100903.84;4962526;28;20675;-53
2022/04/15 02:53:50;;;;;;;6.03;5.43;;;;;;;9.36;100.00;100905.53;4951177;28;20698;-54
2022/04/15 02:56:15;;;;;;;5.87;5.37;;;;;;;9.35;100.00;100906.41;4948831;28;20215;-55
2022/04/15 02:58:41;;;;;;;6.13;5.53;;;;;;;9.36;100.00;100905.53;4941570;28;20628;-54
2022/04/15 03:01:06;;;;;;;6.43;5.83;;;;;;;9.35;100.00;100897.81;4944439;29;20253;-53
2022/04/15 03:03:33;;;;;;;6.10;5.47;;;;;;;9.36;100.00;100902.97;4950913;29;20228;-53
2022/04/15 03:06:00;;;;;;;5.57;5.07;;;;;;;9.37;100.00;100899.53;4949870;28;20197;-54
2022/04/15 03:08:26;;;;;;;6.77;5.97;;;;;;;9.34;100.00;100891.75;4948727;29;20548;-53
2022/04/15 03:10:51;;;;;;;6.50;5.73;;;;;;;9.30;100.00;100898.63;4948036;29;20190;-54
2022/04/15 03:13:16;;;;;;;6.60;5.90;;;;;;;9.24;100.00;100898.56;4939934;28;20218;-54
2022/04/15 03:15:42;;;;;;;6.70;5.40;;;;;;;9.22;100.00;100902.91;4947307;28;20188;-55
2022/04/15 03:18:07;;;;;;;5.97;5.47;;;;;;;9.18;100.00;100895.09;4942405;28;20205;-54
2022/04/15 03:20:32;;;;;;;5.83;5.33;;;;;;;9.14;100.00;100902.84;4949268;29;20187;-53
2022/04/15 03:22:57;;;;;;;5.63;5.03;;;;;;;9.12;100.00;100903.66;4947603;29;20236;-54
2022/04/15 03:25:23;;;;;;;5.83;5.23;;;;;;;9.08;100.00;100897.63;4947634;28;20209;-54
2022/04/15 03:27:48;;;;;;;6.53;5.87;;;;;;;9.05;100.00;100900.19;4946396;29;20198;-55
2022/04/15 03:30:14;;;;;;;5.90;5.40;;;;;;;9.03;100.00;100904.47;4949070;29;20706;-54
2022/04/15 03:32:50;;;;;;;6.50;5.80;;;;;;;9.02;100.00;100905.31;4947987;29;20210;-53
2022/04/15 03:35:20;;;;;;;6.37;5.77;;;;;;;8.99;100.00;100911.31;4943863;29;20213;-56
2022/04/15 03:37:48;;;;;;;6.57;5.97;;;;;;;8.97;100.00;100914.75;4944346;29;20212;-54
2022/04/15 03:40:14;;;;;;;6.67;6.07;;;;;;;8.97;100.00;100914.75;4942954;29;20189;-54
2022/04/15 03:42:52;;;;;;;6.47;5.87;;;;;;;8.97;100.00;100912.19;4949413;29;21029;-53
2022/04/15 03:45:19;;;;;;;6.17;5.67;;;;;;;9.00;100.00;100914.75;4946089;29;20216;-54
2022/04/15 03:47:46;;;;;;;6.57;6.07;;;;;;;9.01;100.00;100911.31;4946189;28;20192;-54
2022/04/15 03:50:12;;;;;;;6.33;5.73;;;;;;;9.00;100.00;100915.63;4946586;28;20182;-53
2022/04/15 03:52:38;;;;;;;6.27;5.77;;;;;;;8.97;100.00;100913.03;4953325;28;20760;-55
2022/04/15 03:55:05;;;;;;;6.00;5.50;;;;;;;8.93;100.00;100918.16;4946917;28;20670;-52
2022/04/15 03:57:31;;;;;;;6.03;5.43;;;;;;;8.88;100.00;100917.25;4943425;29;20186;-54
2022/04/15 03:59:56;;;;;;;6.03;5.53;;;;;;;8.84;100.00;100917.25;4945743;28;20194;-52
2022/04/15 04:02:21;;;;;;;5.90;5.40;;;;;;;8.81;100.00;100911.16;4946356;29;20524;-53
2022/04/15 04:04:47;;;;;;;5.70;5.20;;;;;;;8.78;100.00;100916.31;4944056;28;20215;-54
2022/04/15 04:07:15;;;;;;;6.10;5.60;;;;;;;8.74;100.00;100920.59;4947785;29;20196;-55
2022/04/15 04:09:40;;;;;;;7.00;5.70;;;;;;;8.72;100.00;100919.69;4944330;29;20217;-53
2022/04/15 04:12:06;;;;;;;7.53;5.83;;;;;;;8.71;100.00;100917.13;4944277;29;20218;-54
2022/04/15 04:14:32;;;;;;;6.47;5.67;;;;;;;8.68;100.00;100920.53;4943669;28;20183;-53
2022/04/15 04:16:57;;;;;;;6.03;5.53;;;;;;;8.65;100.00;100918.78;4943825;28;20633;-53
2022/04/15 04:19:22;;;;;;;5.97;5.47;;;;;;;8.63;100.00;100914.47;4944706;29;20194;-54
2022/04/15 04:21:48;;;;;;;8.50;6.00;;;;;;;8.65;100.00;100928.25;4945361;28;20293;-54
2022/04/15 04:24:13;;;;;;;6.70;6.10;;;;;;;8.65;100.00;100925.66;4946931;29;20214;-54
2022/04/15 04:26:38;;;;;;;6.73;6.00;;;;;;;8.64;100.00;100927.38;4944261;29;20731;-54
2022/04/15 04:29:04;;;;;;;6.87;6.27;;;;;;;8.64;100.00;100929.94;4945174;28;20225;-53
2022/04/15 04:31:29;;;;;;;6.90;6.00;;;;;;;8.66;100.00;100928.25;4945109;28;20186;-55
2022/04/15 04:33:54;;;;;;;7.23;6.53;;;;;;;8.66;100.00;100936.00;4946207;28;20318;-54
2022/04/15 04:36:21;;;;;;;6.87;6.13;;;;;;;8.65;100.00;100936.84;4943214;29;20254;-53
2022/04/15 04:38:46;;;;;;;6.23;5.63;;;;;;;8.63;100.00;100935.97;4944352;28;20643;-55
2022/04/15 04:41:12;;;;;;;6.70;6.03;;;;;;;8.61;100.00;100940.25;4960057;28;20208;-54
2022/04/15 04:43:37;;;;;;;6.37;5.77;;;;;;;8.62;100.00;100938.53;4943164;29;20225;-54
2022/04/15 04:46:03;;;;;;;6.07;5.40;;;;;;;8.61;100.00;100945.44;4943199;29;20197;-54
2022/04/15 04:48:28;;;;;;;6.43;5.77;;;;;;;8.64;100.00;100952.31;4946149;29;20629;-54
2022/04/15 04:50:54;;;;;;;6.07;5.53;;;;;;;8.64;100.00;100960.91;4946921;29;20678;-54
2022/04/15 04:53:19;;;;;;;6.90;6.30;;;;;;;8.69;100.00;100954.09;4949126;28;20587;-53
2022/04/15 04:55:45;;;;;;;6.77;6.17;;;;;;;8.74;100.00;100953.28;4949249;29;20541;-53
2022/04/15 04:58:10;;;;;;;7.13;6.30;;;;;;;8.82;100.00;100960.25;4948944;29;20539;-53
2022/04/15 05:00:35;;;;;;;6.33;5.83;;;;;;;8.91;100.00;100959.47;4947911;29;20185;-54
2022/04/15 05:03:02;;;;;;;6.50;5.87;;;;;;;9.00;100.00;100971.56;4948334;29;20199;-54
2022/04/15 05:05:27;;;;;;;6.50;5.93;;;;;;;9.07;100.00;100964.75;4948209;28;20212;-54
2022/04/15 05:07:53;;;;;;;8.00;5.80;;;;;;;9.15;100.00;100976.00;4947912;29;20182;-54
2022/04/15 05:10:18;;;;;;;6.93;5.93;;;;;;;9.26;100.00;100973.50;4949883;29;20194;-53
2022/04/15 05:12:45;;;;;;;6.10;5.50;;;;;;;9.39;100.00;100979.59;4949524;28;20343;-52
2022/04/15 05:15:11;;;;;;;6.17;5.63;;;;;;;9.53;100.00;100982.28;4946505;29;20230;-53
2022/04/15 05:17:37;;;;;;;6.20;5.70;;;;;;;9.68;100.00;100979.81;4946661;29;20175;-53
2022/04/15 05:20:03;;;;;;;5.63;5.13;;;;;;;9.83;100.00;100988.50;4949238;29;20202;-54
2022/04/15 05:22:29;;;;;;;5.73;5.20;;;;;;;9.97;100.00;100984.25;4959568;28;20221;-53
2022/04/15 05:24:54;;;;;;;5.73;5.23;;;;;;;10.11;100.00;100989.50;4948857;29;20285;-54
2022/04/15 05:27:20;;;;;;;6.20;5.20;;;;;;;10.27;100.00;100989.56;4941007;29;20266;-55
2022/04/15 05:29:45;;;;;;;5.50;5.10;;;;;;;10.37;100.00;100997.34;4948250;29;20190;-53
2022/04/15 05:32:10;;;;;;;6.10;5.60;;;;;;;10.47;100.00;100992.25;4949047;29;20310;-54
2022/04/15 05:34:36;;;;;;;6.07;5.57;;;;;;;10.56;100.00;100994.84;4945775;28;20212;-54
2022/04/15 05:37:01;;;;;;;5.77;5.27;;;;;;;10.66;100.00;100990.56;4948324;29;20215;-53
2022/04/15 05:39:27;;;;;;;5.90;5.40;;;;;;;10.82;100.00;100991.44;4947650;29;20179;-54
2022/04/15 05:41:52;;;;;;;5.63;5.23;;;;;;;11.06;100.00;100992.34;4943858;29;20217;-52
2022/04/15 05:44:17;;;;;;;5.73;5.07;;;;;;;11.36;100.00;100994.03;4941644;28;20234;-54
2022/04/15 05:46:43;;;;;;;5.50;5.10;;;;;;;11.69;100.00;101000.06;4944667;28;20242;-54
2022/04/15 05:49:13;;;;;;;5.30;4.90;;;;;;;11.98;100.00;100996.53;4943938;29;20188;-53
2022/04/15 05:51:40;;;;;;;5.50;5.00;;;;;;;12.11;100.00;100996.50;4944688;28;20187;-53
2022/04/15 05:54:06;;;;;;;5.67;5.23;;;;;;;12.24;100.00;100998.19;4949272;29;20194;-53
2022/04/15 05:56:31;;;;;;;4.93;4.53;;;;;;;12.38;100.00;100999.84;4949632;29;20187;-54
2022/04/15 05:58:56;;;;;;;4.77;4.47;;;;;;;12.64;100.00;100992.78;4952695;29;20274;-52
2022/04/15 06:01:22;;;;;;;5.43;4.97;;;;;;;13.04;100.00;101001.16;4953511;28;20238;-53
2022/04/15 06:03:48;;;;;;;5.47;4.80;;;;;;;13.51;100.00;101002.50;4951444;29;20707;-55
2022/04/15 06:06:13;;;;;;;5.30;4.80;;;;;;;13.97;100.00;101008.09;4952710;29;20188;-55
2022/04/15 06:08:38;;;;;;;5.33;4.87;;;;;;;14.25;100.00;101010.38;4951644;29;20176;-55
2022/04/15 06:11:04;;;;;;;5.47;5.07;;;;;;;14.48;100.00;101018.75;4952168;29;20190;-56
2022/04/15 06:13:29;;;;;;;5.53;5.00;;;;;;;14.73;100.00;101009.78;4953463;28;20207;-54
2022/04/15 06:15:58;;;;;;;5.83;5.33;;;;;;;14.90;100.00;101015.56;4950308;29;20191;-54
2022/04/15 06:18:26;;;;;;;6.27;5.70;;;;;;;15.23;100.00;101015.91;4949651;29;20694;-54
2022/04/15 06:20:52;;;;;;;6.80;6.20;;;;;;;15.67;98.37;101013.44;4949728;29;20277;-54
2022/04/15 06:23:18;;;;;;;6.27;5.77;;;;;;;16.12;97.06;101004.75;4963978;28;20415;-52
2022/04/15 06:25:44;;;;;;;5.83;5.33;;;;;;;16.50;96.21;101014.41;4951470;29;20707;-54
2022/04/15 06:28:10;;;;;;;6.37;5.87;;;;;;;16.98;94.76;101014.22;4950381;29;20225;-53
2022/04/15 06:30:36;;;;;;;7.37;6.23;;;;;;;17.21;93.63;101015.41;4951079;28;20266;-54
2022/04/15 06:33:05;;;;;;;6.23;5.67;;;;;;;17.57;93.00;101015.38;4943570;29;20217;-53
2022/04/15 06:35:30;;;;;;;6.90;6.30;;;;;;;17.80;92.04;101017.38;4943850;29;20222;-53
2022/04/15 06:37:55;;;;;;;7.13;6.53;;;;;;;17.84;91.75;101015.50;4948986;29;20183;-53
2022/04/15 06:40:21;;;;;;;7.50;6.90;;;;;;;17.90;91.59;101019.72;4950690;28;20553;-53
2022/04/15 06:42:46;;;;;;;8.00;7.30;;;;;;;17.73;91.76;101017.56;4950003;28;20728;-55
2022/04/15 06:45:14;;;;;;;8.23;7.53;;;;;;;17.56;92.30;101016.25;4949391;29;20574;-54
2022/04/15 06:47:39;;;;;;;9.30;8.50;;;;;;;17.46;92.14;101017.41;4949231;28;20183;-54
2022/04/15 06:50:05;;;;;;;9.40;8.50;;;;;;;17.53;91.93;101021.56;4952486;28;20210;-53
2022/04/15 06:52:31;;;;;;;11.00;10.10;;;;;;;17.53;91.79;101026.81;4951652;28;20298;-54
2022/04/15 06:54:56;;;;;;;11.67;10.57;;;;;;;17.57;91.54;101028.44;4947312;29;20235;-53
2022/04/15 06:57:21;;;;;;;11.47;10.37;;;;;;;17.60;91.23;101022.25;4935741;28;20191;-54
2022/04/15 06:59:47;;;;;;;14.43;12.93;;;;;;;17.54;91.33;101028.53;4942143;28;21156;-53
2022/04/15 07:02:12;;;;;;;12.87;11.47;;;;;;;17.56;91.14;101031.09;4940844;28;20226;-54
2022/04/15 07:04:38;;;;;;;12.40;11.27;;;;;;;17.55;91.15;101031.97;4947944;28;20217;-54
2022/04/15 07:07:03;;;;;;;14.50;12.83;;;;;;;17.43;90.99;101034.03;4939833;28;20900;-54
2022/04/15 07:09:29;;;;;;;13.40;12.30;;;;;;;17.44;90.94;101029.69;4944355;28;20228;-52
2022/04/15 07:11:56;;;;;;;14.93;13.53;;;;;;;17.35;90.83;101030.75;4941666;28;20305;-55
2022/04/15 07:14:21;;;;;;;13.37;12.27;;;;;;;17.35;90.55;101041.22;4944395;28;20175;-54
2022/04/15 07:16:47;;;;;;;12.97;11.73;;;;;;;17.49;90.51;101038.25;4948535;28;20247;-54
2022/04/15 07:19:12;;;;;;;14.90;13.50;;;;;;;17.78;89.42;101040.09;4944477;28;20199;-53
2022/04/15 07:21:39;;;;;;;17.53;15.87;;;;;;;17.75;89.17;101042.78;4944631;28;20202;-53
2022/04/15 07:24:05;;;;;;;16.00;14.57;;;;;;;17.71;89.55;101041.16;4943045;28;20195;-55
2022/04/15 07:26:31;;;;;;;17.93;16.23;;;;;;;17.69;89.23;101048.22;4945825;28;20188;-55
2022/04/15 07:28:57;;;;;;;16.87;15.27;;;;;;;17.36;89.82;101035.94;4942660;28;20191;-53
2022/04/15 07:31:23;;;;;;;16.87;15.27;;;;;;;17.38;90.17;101038.53;4942193;28;20243;-55
2022/04/15 07:33:49;;;;;;;15.37;14.07;;;;;;;17.58;90.01;101045.00;4943934;28;20210;-54
2022/04/15 07:39:00;;;;;;;22.97;20.87;;;;;;;17.10;87.87;101048.81;4942926;28;20255;-53
2022/04/15 07:41:25;;;;;;;22.83;20.70;;;;;;;16.90;89.49;101042.25;4944869;28;20220;-54
2022/04/15 07:43:50;;;;;;;21.53;19.60;;;;;;;16.86;90.00;101048.47;4944140;28;20970;-54
2022/04/15 07:46:16;;;;;;;20.53;18.70;;;;;;;16.91;90.33;101046.59;4944121;28;20238;-54
2022/04/15 07:48:42;;;;;;;23.67;21.47;;;;;;;17.03;89.02;101041.09;4940118;28;20284;-54
2022/04/15 07:51:08;;;;;;;23.70;21.40;;;;;;;16.96;89.26;101047.38;4939978;28;20195;-53
2022/04/15 07:53:33;;;;;;;23.43;21.20;;;;;;;16.95;89.80;101039.56;4936202;28;20304;-53
2022/04/15 07:55:59;;;;;;;24.03;21.80;;;;;;;16.88;88.84;101044.03;4939688;28;20319;-54
2022/04/15 07:58:24;;;;;;;20.60;18.73;;;;;;;17.04;89.01;101048.06;4939129;28;20283;-52
2022/04/15 08:00:49;;;;;;;23.03;20.90;;;;;;;16.97;89.18;101056.06;4943470;28;20214;-53
2022/04/15 08:03:20;;;;;;;23.10;20.87;;;;;;;16.85;89.12;101041.53;4944101;28;20780;-53
2022/04/15 08:05:46;;;;;;;24.60;22.13;;;;;;;16.75;89.77;101046.09;4941877;28;20228;-53
2022/04/15 08:08:11;;;;;;;23.73;21.43;;;;;;;16.94;89.92;101053.53;4939015;28;20188;-54
2022/04/15 08:10:36;;;;;;;22.47;20.37;;;;;;;16.97;89.52;101051.72;4949049;28;20185;-54
2022/04/15 08:13:02;;;;;;;21.80;19.77;;;;;;;17.09;89.41;101047.97;4941656;28;20219;-54
2022/04/15 08:15:28;;;;;;;22.87;20.67;;;;;;;17.21;88.69;101060.75;4950602;28;20183;-54
2022/04/15 08:17:53;;;;;;;21.80;19.90;;;;;;;17.27;88.63;101056.25;4950237;28;20195;-54
2022/04/15 08:20:18;;;;;;;22.37;20.27;;;;;;;17.29;88.96;101047.47;4947498;28;20200;-55
2022/04/15 08:22:44;;;;;;;23.67;21.37;;;;;;;17.18;88.94;101058.19;4946568;28;20249;-54
2022/04/15 08:25:10;;;;;;;22.93;20.70;;;;;;;17.24;88.62;101057.19;4942509;28;20457;-54
2022/04/15 08:27:35;;;;;;;38.93;22.03;;;;;;;17.33;88.57;101061.34;4939926;28;20213;-54
2022/04/15 08:30:01;;;;;;;22.30;20.20;;;;;;;17.31;88.55;101063.13;4939004;28;20597;-54
2022/04/15 08:32:33;;;;;;;22.60;20.50;;;;;;;17.55;88.11;101056.41;4942562;28;20284;-54
2022/04/15 08:35:06;;;;;;;20.57;18.67;;;;;;;17.74;88.00;101059.41;4946219;28;20291;-54
2022/04/15 08:37:33;;;;;;;20.63;18.63;;;;;;;17.93;86.78;101058.91;4943181;28;20200;-53
2022/04/15 08:39:59;;;;;;;21.43;19.33;;;;;;;18.15;86.17;101059.22;4945177;28;20264;-53
2022/04/15 08:42:24;;;;;;;19.43;17.73;;;;;;;18.18;85.59;101053.88;4941354;28;20253;-54
2022/04/15 08:44:51;;;;;;;21.73;19.63;;;;;;;18.05;85.27;101071.69;4947108;28;20205;-53
2022/04/15 08:47:17;;;;;;;19.80;18.20;;;;;;;18.12;85.61;101073.25;4945506;28;20198;-53
2022/04/15 08:49:42;;;;;;;19.63;17.97;;;;;;;18.33;85.29;101068.28;4942329;28;20271;-54
2022/04/15 08:52:09;;;;;;;19.23;17.43;;;;;;;18.46;84.54;101073.16;4947313;28;20218;-54
2022/04/15 08:54:35;;;;;;;17.70;16.10;;;;;;;18.62;84.32;101071.81;4944176;28;20186;-55
2022/04/15 08:57:00;;;;;;;20.20;18.20;;;;;;;18.48;84.05;101074.00;4944995;28;20248;-55
2022/04/15 08:59:26;;;;;;;18.07;16.37;;;;;;;18.70;83.62;101068.97;4944165;28;20193;-54
2022/04/15 09:01:51;;;;;;;19.30;17.60;;;;;;;18.66;83.32;101070.81;4949170;28;20248;-53
2022/04/15 09:04:18;;;;;;;19.73;18.00;;;;;;;18.62;83.31;101078.84;4944595;28;20313;-54
2022/04/15 09:06:43;;;;;;;18.70;17.07;;;;;;;18.73;82.93;101080.22;4941570;28;20228;-53
2022/04/15 09:09:14;;;;;;;19.47;17.67;;;;;;;18.72;82.78;101075.91;4937395;28;20312;-54
2022/04/15 09:11:41;;;;;;;18.30;16.53;;;;;;;18.86;82.40;101083.31;4941744;28;20179;-55
2022/04/15 09:14:11;;;;;;;18.07;16.57;;;;;;;18.95;81.94;101078.75;4945088;28;20193;-55
2022/04/15 09:16:40;;;;;;;17.50;15.80;;;;;;;19.08;82.03;101073.94;4944916;28;20191;-53
2022/04/15 09:19:07;;;;;;;16.87;15.37;;;;;;;19.21;81.65;101079.66;4954779;28;20217;-54
2022/04/15 09:21:33;;;;;;;17.77;16.17;;;;;;;19.27;81.01;101079.47;4955206;28;20192;-55
2022/04/15 09:23:58;;;;;;;17.27;15.63;;;;;;;19.40;80.92;101072.03;4947857;28;20581;-54
2022/04/15 09:26:25;;;;;;;17.97;16.27;;;;;;;19.48;80.41;101072.66;4942876;28;20190;-53
2022/04/15 09:28:53;;;;;;;15.87;14.37;;;;;;;19.59;80.13;101074.88;4947747;28;20528;-55
2022/04/15 09:31:20;;;;;;;16.50;14.90;;;;;;;19.65;79.23;101074.69;4945376;28;20233;-54
2022/04/15 09:33:51;;;;;;;17.83;16.20;;;;;;;19.83;78.95;101077.59;4946709;28;20211;-55
2022/04/15 09:36:29;;;;;;;16.80;15.30;;;;;;;19.89;78.72;101085.31;4945972;28;20201;-53
2022/04/15 09:39:01;;;;;;;18.07;16.27;;;;;;;19.83;79.44;101086.31;4941496;28;20182;-54
2022/04/15 09:41:29;;;;;;;18.87;17.20;;;;;;;19.73;77.76;101080.56;4961398;28;20274;-54
2022/04/15 09:44:00;;;;;;;17.67;15.93;;;;;;;19.64;78.00;101084.34;4944541;28;20214;-55
2022/04/15 09:46:27;;;;;;;19.93;18.03;;;;;;;19.32;78.25;101083.66;4950525;28;20566;-53
2022/04/15 09:49:07;;;;;;;17.00;15.40;;;;;;;19.55;77.40;101087.28;4942731;28;21992;-54
2022/04/15 09:51:35;;;;;;;16.03;14.57;;;;;;;19.68;77.36;101079.84;4947281;29;20892;-53
2022/04/15 09:54:03;;;;;;;16.20;14.80;;;;;;;19.75;76.78;101078.72;4945160;28;20305;-54
2022/04/15 09:56:32;;;;;;;18.17;16.53;;;;;;;19.63;76.79;101077.38;4936633;28;20230;-51
2022/04/15 09:59:01;;;;;;;19.87;18.07;;;;;;;19.86;76.23;101075.72;4945209;28;20277;-54
2022/04/15 10:01:30;;;;;;;16.83;15.33;;;;;;;19.79;76.87;101079.47;4941646;28;20218;-53
2022/04/15 10:03:56;;;;;;;17.57;15.27;;;;;;;20.02;76.61;101070.81;4945909;28;20233;-54
2022/04/15 10:06:22;;;;;;;15.90;14.50;;;;;;;20.18;76.32;101059.75;4943183;28;20274;-54
2022/04/15 10:08:48;;;;;;;14.67;13.47;;;;;;;20.19;76.25;101064.09;4943645;28;20303;-54
2022/04/15 10:11:14;;;;;;;13.43;12.33;;;;;;;20.24;75.38;101063.00;4943713;28;20182;-53
2022/04/15 10:13:44;;;;;;;12.30;11.10;;;;;;;20.51;74.78;101067.25;4945365;28;20273;-54
2022/04/15 10:16:11;;;;;;;14.30;13.00;;;;;;;20.69;74.48;101065.72;4945482;28;20225;-54
2022/04/15 10:18:37;;;;;;;12.03;10.27;;;;;;;20.83;74.15;101058.16;4950842;28;20214;-55
2022/04/15 10:21:05;;;;;;;11.50;10.40;;;;;;;20.97;74.45;101062.84;4947762;28;20199;-53
2022/04/15 10:23:31;;;;;;;16.10;14.73;;;;;;;20.70;73.08;101063.00;4943237;28;20222;-52
2022/04/15 10:26:01;;;;;;;15.00;13.50;;;;;;;20.71;73.40;101064.72;4945394;28;20726;-54
2022/04/15 10:28:38;;;;;;;16.33;14.73;;;;;;;20.72;73.98;101057.72;4945864;28;20638;-54
2022/04/15 10:31:13;;;;;;;15.03;13.63;;;;;;;20.87;73.48;101061.53;4939652;28;20668;-54
2022/04/15 10:33:40;;;;;;;14.50;12.90;;;;;;;20.99;73.33;101061.03;4943203;28;20496;-54
2022/04/15 10:36:11;;;;;;;13.67;12.40;;;;;;;21.23;72.78;101053.06;4944318;28;20267;-55
2022/04/15 10:38:37;;;;;;;14.50;13.10;;;;;;;21.35;72.94;101056.09;4951328;28;20184;-54
2022/04/15 10:41:15;;;;;;;17.57;16.03;;;;;;;21.39;72.88;101053.25;4943906;28;20201;-55
2022/04/15 10:43:56;;;;;;;17.40;15.70;;;;;;;21.21;72.43;101052.25;4943513;28;20218;-61
2022/04/15 10:46:29;;;;;;;14.97;13.57;;;;;;;21.48;72.00;101052.84;4944781;28;20251;-55
2022/04/15 10:48:58;;;;;;;16.70;15.03;;;;;;;21.52;72.00;101058.88;4944825;28;20198;-52
2022/04/15 10:51:26;;;;;;;20.03;18.13;;;;;;;21.63;70.57;101047.88;4944169;28;20206;-53
2022/04/15 10:53:52;;;;;;;18.60;17.00;;;;;;;21.64;70.42;101049.59;4948768;28;20214;-55
2022/04/15 10:56:20;;;;;;;16.97;15.20;;;;;;;21.35;70.67;101042.94;4946046;28;20216;-54
2022/04/15 11:01:13;;;;;;;17.87;16.27;;;;;;;21.58;70.55;101052.47;4945424;28;20190;-55
2022/04/15 11:01:35;;;;;;;18.60;16.93;;;;;;;21.24;70.47;101054.78;4946983;28;20207;-53
2022/04/15 11:04:05;;;;;;;14.83;13.63;;;;;;;21.34;70.58;101046.47;4945680;28;20190;-55
2022/04/15 11:06:31;;;;;;;14.23;13.03;;;;;;;21.30;70.60;101051.88;4944358;28;21360;-54
2022/04/15 11:08:56;;;;;;;15.33;13.73;;;;;;;21.38;70.05;101053.34;4942333;28;20199;-55
2022/04/15 11:11:36;;;;;;;12.03;11.03;;;;;;;21.41;69.40;101046.16;4944612;28;20552;-56
2022/04/15 11:14:04;;;;;;;10.13;9.33;;;;;;;21.58;69.09;101049.84;4950723;28;20195;-54
2022/04/15 11:16:50;;;;;;;13.23;12.13;;;;;;;21.65;68.10;101038.16;4944863;28;20678;-54